createdAt,value
2019-04-07T00:02:09.983Z,9.70
2019-04-07T00:04:41.434Z,9.70
2019-04-07T00:07:13.809Z,9.70
2019-04-07T00:09:45.245Z,9.70
2019-04-07T00:12:16.320Z,9.70
2019-04-07T00:14:47.264Z,9.60
2019-04-07T00:17:19.178Z,9.60
2019-04-07T00:19:50.425Z,9.60
2019-04-07T00:22:21.273Z,9.50
2019-04-07T00:24:52.262Z,9.50
2019-04-07T00:27:23.591Z,9.40
2019-04-07T00:29:55.463Z,9.40
2019-04-07T00:32:26.482Z,9.40
2019-04-07T00:34:57.542Z,9.40
2019-04-07T00:37:28.417Z,9.40
2019-04-07T00:40:00.575Z,9.40
2019-04-07T00:42:31.674Z,9.30
2019-04-07T00:45:03.622Z,9.30
2019-04-07T00:47:34.239Z,9.30
2019-04-07T00:50:05.694Z,9.30
2019-04-07T00:52:36.998Z,9.30
2019-04-07T00:55:08.851Z,9.30
2019-04-07T00:57:39.638Z,9.30
2019-04-07T01:00:11.825Z,9.20
2019-04-07T01:02:43.072Z,9.30
2019-04-07T01:05:13.994Z,9.30
2019-04-07T01:07:45.209Z,9.20
2019-04-07T01:10:16.355Z,9.30
2019-04-07T01:12:47.361Z,9.20
2019-04-07T01:15:18.631Z,9.10
2019-04-07T01:17:49.093Z,9.20
2019-04-07T01:20:20.652Z,9.10
2019-04-07T01:22:51.594Z,9.10
2019-04-07T01:25:22.558Z,9.00
2019-04-07T01:27:53.271Z,9.00
2019-04-07T01:30:23.933Z,9.00
2019-04-07T01:32:54.875Z,9.00
2019-04-07T01:35:25.636Z,8.90
2019-04-07T01:37:57.059Z,8.90
2019-04-07T01:40:28.866Z,8.90
2019-04-07T01:43:14.242Z,8.90
2019-04-07T01:46:03.826Z,8.90
2019-04-07T01:48:52.332Z,8.70
2019-04-07T01:51:41.061Z,8.70
2019-04-07T01:54:20.941Z,8.70
2019-04-07T01:57:10.711Z,8.60
2019-04-07T01:59:58.846Z,8.60
2019-04-07T02:02:49.399Z,8.60
2019-04-07T02:05:58.653Z,8.60
2019-04-07T02:08:35.286Z,8.50
2019-04-07T02:11:43.990Z,8.50
2019-04-07T02:14:34.521Z,8.40
2019-04-07T02:17:19.948Z,8.40
2019-04-07T02:20:24.642Z,8.40
2019-04-07T02:23:14.356Z,8.40
2019-04-07T02:25:58.171Z,8.40
2019-04-07T02:28:57.214Z,8.50
2019-04-07T02:31:49.931Z,8.40
2019-04-07T02:34:29.893Z,8.40
2019-04-07T02:37:26.749Z,8.40
2019-04-07T02:40:17.849Z,8.40
2019-04-07T02:43:06.031Z,8.30
2019-04-07T02:45:56.447Z,8.30
2019-04-07T02:48:45.059Z,8.30
2019-04-07T02:51:26.257Z,8.30
2019-04-07T02:54:05.952Z,8.30
2019-04-07T02:56:57.538Z,8.30
2019-04-07T02:59:46.230Z,8.30
2019-04-07T03:02:34.555Z,8.30
2019-04-07T03:05:36.770Z,8.20
2019-04-07T03:08:42.926Z,8.20
2019-04-07T03:11:47.754Z,8.20
2019-04-07T03:14:31.327Z,8.20
2019-04-07T03:17:16.683Z,8.10
2019-04-07T03:19:56.243Z,8.10
2019-04-07T03:22:45.907Z,8.00
2019-04-07T03:25:35.620Z,8.00
2019-04-07T03:28:19.623Z,8.00
2019-04-07T03:31:08.333Z,8.00
2019-04-07T03:34:18.454Z,8.00
2019-04-07T03:37:18.388Z,8.00
2019-04-07T03:39:55.098Z,8.00
2019-04-07T03:42:32.760Z,8.00
2019-04-07T03:45:22.121Z,8.00
2019-04-07T03:48:07.106Z,8.00
2019-04-07T03:50:50.834Z,7.90
2019-04-07T03:53:50.531Z,7.90
2019-04-07T03:56:32.091Z,7.90
2019-04-07T03:59:20.139Z,7.90
2019-04-07T04:02:07.998Z,7.80
2019-04-07T04:04:46.499Z,7.80
2019-04-07T04:07:32.382Z,7.80
2019-04-07T04:10:27.140Z,7.80
2019-04-07T04:13:20.101Z,7.80
2019-04-07T04:16:10.513Z,7.80
2019-04-07T04:18:41.393Z,7.70
2019-04-07T04:21:11.923Z,7.70
2019-04-07T04:23:43.562Z,7.70
2019-04-07T04:26:15.137Z,7.80
2019-04-07T04:28:46.212Z,7.80
2019-04-07T04:31:17.989Z,7.80
2019-04-07T04:33:49.024Z,7.70
2019-04-07T04:36:19.715Z,7.70
2019-04-07T04:38:52.384Z,7.70
2019-04-07T04:41:23.316Z,7.70
2019-04-07T04:43:54.727Z,7.70
2019-04-07T04:46:25.890Z,7.70
2019-04-07T04:48:58.930Z,7.70
2019-04-07T04:51:35.078Z,7.70
2019-04-07T04:54:03.866Z,7.70
2019-04-07T04:56:34.612Z,7.70
2019-04-07T04:59:07.492Z,7.70
2019-04-07T05:01:38.484Z,7.60
2019-04-07T05:04:10.005Z,7.60
2019-04-07T05:06:41.325Z,7.70
2019-04-07T05:09:12.324Z,7.70
2019-04-07T05:11:43.577Z,7.70
2019-04-07T05:14:15.175Z,7.70
2019-04-07T05:16:45.734Z,7.70
2019-04-07T05:19:16.536Z,7.70
2019-04-07T05:21:47.358Z,7.70
2019-04-07T05:24:18.053Z,7.70
2019-04-07T05:26:48.966Z,7.60
2019-04-07T05:29:20.157Z,7.60
2019-04-07T05:31:51.366Z,7.70
2019-04-07T05:34:22.420Z,7.70
2019-04-07T05:36:54.503Z,7.70
2019-04-07T05:39:25.791Z,7.70
2019-04-07T05:41:57.064Z,7.70
2019-04-07T05:44:28.865Z,7.70
2019-04-07T05:46:59.739Z,7.80
2019-04-07T05:49:30.496Z,7.80
2019-04-07T05:52:04.028Z,7.80
2019-04-07T05:54:34.043Z,7.90
2019-04-07T05:57:05.461Z,7.90
2019-04-07T05:59:36.520Z,8.00
2019-04-07T06:02:08.011Z,8.00
2019-04-07T06:04:39.393Z,8.00
2019-04-07T06:07:11.399Z,8.00
2019-04-07T06:09:42.632Z,7.90
2019-04-07T06:12:13.365Z,7.90
2019-04-07T06:14:46.569Z,8.00
2019-04-07T06:17:16.563Z,8.00
2019-04-07T06:19:47.214Z,8.00
2019-04-07T06:22:19.829Z,8.10
2019-04-07T06:24:51.291Z,8.10
2019-04-07T06:27:21.965Z,8.10
2019-04-07T06:29:57.322Z,8.10
2019-04-07T06:32:26.917Z,8.10
2019-04-07T06:34:58.419Z,8.20
2019-04-07T06:37:29.502Z,8.30
2019-04-07T06:40:01.191Z,8.30
2019-04-07T06:42:34.075Z,8.40
2019-04-07T06:45:06.309Z,8.40
2019-04-07T06:47:46.439Z,8.40
2019-04-07T06:50:23.676Z,8.40
2019-04-07T06:53:18.665Z,8.50
2019-04-07T06:56:09.993Z,8.50
2019-04-07T06:58:59.304Z,8.60
2019-04-07T07:01:41.226Z,8.60
2019-04-07T07:04:30.067Z,8.50
2019-04-07T07:07:34.669Z,8.50
2019-04-07T07:10:28.689Z,8.40
2019-04-07T07:13:09.678Z,8.40
2019-04-07T07:16:05.146Z,8.50
2019-04-07T07:19:02.035Z,8.50
2019-04-07T07:21:54.498Z,8.60
2019-04-07T07:24:26.586Z,8.60
2019-04-07T07:26:58.090Z,8.60
2019-04-07T07:29:30.849Z,8.60
2019-04-07T07:32:03.801Z,8.60
2019-04-07T07:34:34.070Z,8.60
2019-04-07T07:37:05.275Z,8.70
2019-04-07T07:39:36.189Z,8.80
2019-04-07T07:42:07.367Z,8.90
2019-04-07T07:44:39.729Z,8.90
2019-04-07T07:47:11.863Z,8.90
2019-04-07T07:49:42.754Z,9.00
2019-04-07T07:52:16.562Z,9.10
2019-04-07T07:54:46.323Z,9.30
2019-04-07T07:57:21.000Z,9.30
2019-04-07T07:59:49.887Z,9.30
2019-04-07T08:02:21.882Z,9.40
2019-04-07T08:05:11.479Z,9.50
2019-04-07T08:07:46.811Z,9.40
2019-04-07T08:10:16.910Z,9.40
2019-04-07T08:12:49.487Z,9.30
2019-04-07T08:15:23.823Z,9.30
2019-04-07T08:17:53.903Z,9.40
2019-04-07T08:20:25.046Z,9.80
2019-04-07T08:22:56.166Z,10.00
2019-04-07T08:25:28.109Z,10.10
2019-04-07T08:28:02.169Z,10.20
2019-04-07T08:30:31.790Z,10.80
2019-04-07T08:33:03.474Z,10.80
2019-04-07T08:35:38.138Z,11.20
2019-04-07T08:38:06.822Z,11.20
2019-04-07T08:40:39.076Z,11.00
2019-04-07T08:43:10.164Z,11.00
2019-04-07T08:45:41.471Z,15.40
2019-04-07T08:48:11.991Z,19.00
2019-04-07T08:50:43.064Z,20.00
2019-04-07T08:53:16.256Z,23.00
2019-04-07T08:55:48.559Z,24.20
2019-04-07T08:58:25.831Z,26.30
2019-04-07T09:00:53.894Z,28.70
2019-04-07T09:03:24.422Z,30.50
2019-04-07T09:05:57.426Z,29.00
2019-04-07T09:08:28.406Z,26.40
2019-04-07T09:11:11.145Z,27.90
2019-04-07T09:13:44.300Z,30.10
2019-04-07T09:16:25.138Z,29.40
2019-04-07T09:19:10.399Z,31.00
2019-04-07T09:21:58.484Z,31.50
2019-04-07T09:24:50.846Z,30.80
2019-04-07T09:27:32.695Z,32.70
2019-04-07T09:30:22.577Z,34.90
2019-04-07T09:33:18.149Z,35.00
2019-04-07T09:36:16.982Z,35.80
2019-04-07T09:39:09.738Z,37.80
2019-04-07T09:41:57.326Z,36.40
2019-04-07T09:44:53.827Z,37.80
2019-04-07T09:47:49.686Z,38.90
2019-04-07T09:50:43.083Z,40.30
2019-04-07T09:53:48.756Z,39.40
2019-04-07T09:56:29.592Z,41.00
2019-04-07T09:59:20.518Z,38.30
2019-04-07T10:02:10.436Z,34.40
2019-04-07T10:04:58.737Z,34.40
2019-04-07T10:07:42.202Z,34.10
2019-04-07T10:10:33.260Z,35.70
2019-04-07T10:13:29.659Z,33.00
2019-04-07T10:16:35.359Z,30.00
2019-04-07T10:19:16.689Z,27.10
2019-04-07T10:22:05.409Z,24.60
2019-04-07T10:24:53.882Z,24.90
2019-04-07T10:27:33.958Z,24.80
2019-04-07T10:30:24.202Z,23.40
2019-04-07T10:33:04.954Z,22.00
2019-04-07T10:36:12.654Z,20.60
2019-04-07T10:38:56.853Z,19.50
2019-04-07T10:41:55.945Z,18.40
2019-04-07T10:44:45.583Z,17.60
2019-04-07T10:47:38.495Z,16.90
2019-04-07T10:50:28.598Z,16.50
2019-04-07T10:53:34.102Z,16.10
2019-04-07T10:56:27.691Z,15.80
2019-04-07T10:59:19.938Z,15.50
2019-04-07T11:02:10.351Z,15.20
2019-04-07T11:05:07.027Z,15.00
2019-04-07T11:08:09.154Z,14.80
2019-04-07T11:10:53.344Z,14.60
2019-04-07T11:13:48.857Z,14.60
2019-04-07T11:16:37.817Z,14.50
2019-04-07T11:19:27.312Z,14.30
2019-04-07T11:22:05.623Z,14.10
2019-04-07T11:25:05.382Z,14.00
2019-04-07T11:27:59.420Z,14.20
2019-04-07T11:30:39.844Z,14.10
2019-04-07T11:33:34.065Z,14.00
2019-04-07T11:36:39.672Z,13.90
2019-04-07T11:39:30.721Z,13.70
2019-04-07T11:42:19.729Z,13.50
2019-04-07T11:45:12.728Z,13.30
2019-04-07T11:48:01.485Z,13.20
2019-04-07T11:50:57.621Z,13.00
2019-04-07T11:53:54.308Z,12.80
2019-04-07T11:56:49.417Z,12.70
2019-04-07T11:59:51.293Z,12.50
2019-04-07T12:02:51.925Z,12.40
2019-04-07T12:05:44.164Z,12.30
2019-04-07T12:08:36.143Z,12.20
2019-04-07T12:11:20.746Z,12.10
2019-04-07T12:14:24.425Z,12.00
2019-04-07T12:17:21.018Z,11.90
2019-04-07T12:20:14.218Z,11.90
2019-04-07T12:23:10.394Z,11.80
2019-04-07T12:25:56.868Z,11.80
2019-04-07T12:28:53.745Z,11.80
2019-04-07T12:31:51.030Z,11.80
2019-04-07T12:34:46.424Z,11.70
2019-04-07T12:37:28.494Z,11.70
2019-04-07T12:40:22.980Z,11.80
2019-04-07T12:43:00.905Z,12.10
2019-04-07T12:45:56.459Z,12.60
2019-04-07T12:48:55.410Z,12.90
2019-04-07T12:51:56.048Z,13.10
2019-04-07T12:54:52.629Z,13.10
2019-04-07T12:57:35.462Z,13.30
2019-04-07T13:00:24.719Z,13.40
2019-04-07T13:03:22.895Z,13.30
2019-04-07T13:06:24.785Z,13.10
2019-04-07T13:09:16.380Z,13.00
2019-04-07T13:12:11.926Z,12.80
2019-04-07T13:15:05.542Z,12.70
2019-04-07T13:17:56.279Z,12.50
2019-04-07T13:20:55.095Z,12.30
2019-04-07T13:23:36.994Z,12.20
2019-04-07T13:26:30.264Z,12.00
2019-04-07T13:29:12.919Z,11.90
2019-04-07T13:31:57.552Z,11.90
2019-04-07T13:34:46.110Z,11.90
2019-04-07T13:37:44.937Z,11.90
2019-04-07T13:40:34.783Z,11.80
2019-04-07T13:43:18.706Z,11.80
2019-04-07T13:45:59.811Z,11.80
2019-04-07T13:48:51.124Z,11.70
2019-04-07T13:51:37.519Z,11.60
2019-04-07T13:54:47.146Z,11.60
2019-04-07T13:57:38.152Z,11.60
2019-04-07T14:00:30.620Z,11.70
2019-04-07T14:03:29.140Z,11.60
2019-04-07T14:06:19.407Z,11.60
2019-04-07T14:08:59.104Z,11.60
2019-04-07T14:12:01.573Z,11.50
2019-04-07T14:14:39.551Z,11.50
2019-04-07T14:17:20.853Z,11.40
2019-04-07T14:20:10.392Z,11.30
2019-04-07T14:22:56.661Z,11.20
2019-04-07T14:25:48.253Z,11.10
2019-04-07T14:28:34.608Z,11.00
2019-04-07T14:31:23.189Z,10.80
2019-04-07T14:34:15.748Z,10.70
2019-04-07T14:36:59.010Z,10.60
2019-04-07T14:39:41.096Z,10.50
2019-04-07T14:42:34.136Z,10.60
2019-04-07T14:45:21.058Z,10.60
2019-04-07T14:48:10.956Z,10.60
2019-04-07T14:51:04.856Z,10.60
2019-04-07T14:53:54.335Z,10.60
2019-04-07T14:56:37.896Z,10.70
2019-04-07T14:59:38.455Z,10.70
2019-04-07T15:02:10.400Z,10.70
2019-04-07T15:04:54.668Z,10.70
2019-04-07T15:07:50.299Z,10.60
2019-04-07T15:10:27.540Z,10.60
2019-04-07T15:13:04.078Z,10.60
2019-04-07T15:15:35.680Z,10.50
2019-04-07T15:18:07.222Z,10.50
2019-04-07T15:20:37.905Z,10.40
2019-04-07T15:23:09.080Z,10.40
2019-04-07T15:25:44.177Z,10.30
2019-04-07T15:28:14.258Z,10.30
2019-04-07T15:30:47.824Z,10.20
2019-04-07T15:33:17.789Z,10.20
2019-04-07T15:35:50.173Z,10.10
2019-04-07T15:38:24.936Z,10.00
2019-04-07T15:40:53.181Z,10.00
2019-04-07T15:43:24.293Z,9.90
2019-04-07T15:45:55.775Z,9.80
2019-04-07T15:48:27.127Z,9.80
2019-04-07T15:51:00.972Z,9.70
2019-04-07T15:53:31.943Z,9.70
2019-04-07T15:56:06.578Z,9.60
2019-04-07T15:58:35.931Z,9.60
2019-04-07T16:01:09.335Z,9.50
2019-04-07T16:03:39.413Z,9.50
2019-04-07T16:06:14.330Z,9.50
2019-04-07T16:08:42.791Z,9.50
2019-04-07T16:11:16.434Z,9.40
2019-04-07T16:13:46.308Z,9.40
2019-04-07T16:16:17.762Z,9.30
2019-04-07T16:18:48.576Z,9.40
2019-04-07T16:21:20.658Z,9.30
2019-04-07T16:23:53.341Z,9.30
2019-04-07T16:26:23.991Z,9.30
2019-04-07T16:28:55.203Z,9.30
2019-04-07T16:31:25.999Z,9.20
2019-04-07T16:33:57.043Z,9.20
2019-04-07T16:36:28.182Z,9.20
2019-04-07T16:39:01.757Z,9.10
2019-04-07T16:41:32.845Z,9.10
2019-04-07T16:44:06.391Z,9.10
2019-04-07T16:46:36.836Z,9.00
2019-04-07T16:49:07.804Z,9.00
2019-04-07T16:51:40.454Z,9.00
2019-04-07T16:54:11.784Z,9.00
2019-04-07T16:56:44.022Z,9.00
2019-04-07T16:59:15.582Z,9.00
2019-04-07T17:01:46.417Z,9.00
2019-04-07T17:04:17.429Z,8.90
2019-04-07T17:06:59.486Z,8.90
2019-04-07T17:09:24.720Z,8.90
2019-04-07T17:11:54.711Z,8.90
2019-04-07T17:14:26.821Z,8.90
2019-04-07T17:16:57.994Z,8.90
2019-04-07T17:19:30.021Z,8.80
2019-04-07T17:22:03.096Z,8.90
2019-04-07T17:24:35.282Z,8.80
2019-04-07T17:27:09.704Z,8.80
2019-04-07T17:29:39.522Z,8.80
2019-04-07T17:32:10.938Z,8.70
2019-04-07T17:34:43.584Z,8.70
2019-04-07T17:37:16.237Z,8.70
2019-04-07T17:39:55.952Z,8.70
2019-04-07T17:42:28.290Z,8.70
2019-04-07T17:45:20.409Z,8.60
2019-04-07T17:48:07.845Z,8.60
2019-04-07T17:50:56.490Z,8.60
2019-04-07T17:53:47.291Z,8.60
2019-04-07T17:56:46.302Z,8.50
2019-04-07T17:59:38.420Z,8.50
2019-04-07T18:02:28.765Z,8.50
2019-04-07T18:05:26.577Z,8.50
2019-04-07T18:08:33.981Z,8.40
2019-04-07T18:11:29.780Z,8.40
2019-04-07T18:14:30.179Z,8.50
2019-04-07T18:17:39.793Z,8.40
2019-04-07T18:20:28.345Z,8.40
2019-04-07T18:23:16.566Z,8.40
2019-04-07T18:26:08.790Z,8.40
2019-04-07T18:28:54.043Z,8.40
2019-04-07T18:31:49.031Z,8.30
2019-04-07T18:34:39.696Z,8.30
2019-04-07T18:37:29.065Z,8.30
2019-04-07T18:40:35.109Z,8.30
2019-04-07T18:43:19.023Z,8.30
2019-04-07T18:46:20.196Z,8.30
2019-04-07T18:49:10.351Z,8.20
2019-04-07T18:51:53.738Z,8.20
2019-04-07T18:54:42.435Z,8.20
2019-04-07T18:57:42.802Z,8.20
2019-04-07T19:00:32.423Z,8.20
2019-04-07T19:03:18.167Z,8.20
2019-04-07T19:06:07.455Z,8.20
2019-04-07T19:08:52.726Z,8.20
2019-04-07T19:11:37.415Z,8.20
2019-04-07T19:14:45.367Z,8.10
2019-04-07T19:17:33.647Z,8.10
2019-04-07T19:20:22.884Z,8.10
2019-04-07T19:23:11.649Z,8.10
2019-04-07T19:25:51.168Z,8.10
2019-04-07T19:28:43.719Z,8.10
2019-04-07T19:31:23.685Z,8.00
2019-04-07T19:34:31.758Z,8.00
2019-04-07T19:37:15.600Z,8.00
2019-04-07T19:40:02.509Z,8.00
2019-04-07T19:43:01.721Z,8.00
2019-04-07T19:45:58.529Z,8.00
2019-04-07T19:48:46.998Z,8.00
2019-04-07T19:51:34.447Z,8.00
2019-04-07T19:54:23.553Z,7.90
2019-04-07T19:57:04.740Z,7.90
2019-04-07T19:59:58.334Z,7.80
2019-04-07T20:02:53.775Z,7.80
2019-04-07T20:05:58.933Z,7.80
2019-04-07T20:08:49.304Z,7.70
2019-04-07T20:11:36.908Z,7.70
2019-04-07T20:14:32.209Z,7.60
2019-04-07T20:17:23.704Z,7.60
2019-04-07T20:20:23.828Z,7.50
2019-04-07T20:23:16.760Z,7.50
2019-04-07T20:25:53.254Z,7.50
2019-04-07T20:28:46.607Z,7.40
2019-04-07T20:31:36.461Z,7.40
2019-04-07T20:34:26.667Z,7.30
2019-04-07T20:37:03.933Z,7.30
2019-04-07T20:39:56.239Z,7.30
2019-04-07T20:42:48.513Z,7.20
2019-04-07T20:45:49.126Z,7.20
2019-04-07T20:48:37.094Z,7.20
2019-04-07T20:51:24.218Z,7.10
2019-04-07T20:54:19.941Z,7.10
2019-04-07T20:57:16.302Z,7.10
2019-04-07T21:00:03.474Z,7.10
2019-04-07T21:03:06.434Z,7.00
2019-04-07T21:05:33.651Z,7.00
2019-04-07T21:08:20.976Z,7.00
2019-04-07T21:11:09.002Z,7.00
2019-04-07T21:14:07.773Z,6.90
2019-04-07T21:17:07.048Z,6.90
2019-04-07T21:20:09.773Z,6.90
2019-04-07T21:23:09.230Z,6.90
2019-04-07T21:26:05.779Z,6.80
2019-04-07T21:29:02.395Z,6.80
2019-04-07T21:32:08.302Z,6.80
2019-04-07T21:34:47.231Z,6.80
2019-04-07T21:37:37.955Z,6.80
2019-04-07T21:40:18.720Z,6.80
2019-04-07T21:43:07.229Z,6.80
2019-04-07T21:46:03.016Z,6.80
2019-04-07T21:48:58.043Z,6.80
2019-04-07T21:51:38.787Z,6.80
2019-04-07T21:54:44.053Z,6.70
2019-04-07T21:57:56.753Z,6.80
2019-04-07T22:00:43.634Z,6.70
2019-04-07T22:03:40.878Z,6.70
2019-04-07T22:06:37.267Z,6.70
2019-04-07T22:09:17.053Z,6.60
2019-04-07T22:11:49.432Z,6.60
2019-04-07T22:14:20.856Z,6.60
2019-04-07T22:16:51.519Z,6.60
2019-04-07T22:19:22.662Z,6.50
2019-04-07T22:21:56.364Z,6.50
2019-04-07T22:24:26.319Z,6.50
2019-04-07T22:26:57.533Z,6.50
2019-04-07T22:29:28.748Z,6.40
2019-04-07T22:31:59.855Z,6.40
2019-04-07T22:34:32.701Z,6.30
2019-04-07T22:37:04.490Z,6.30
2019-04-07T22:39:35.837Z,6.30
2019-04-07T22:42:06.890Z,6.30
2019-04-07T22:44:38.121Z,6.20
2019-04-07T22:47:10.883Z,6.20
2019-04-07T22:49:41.618Z,6.10
2019-04-07T22:52:16.033Z,6.10
2019-04-07T22:54:45.728Z,6.10
2019-04-07T22:57:17.666Z,6.10
2019-04-07T22:59:48.383Z,6.10
2019-04-07T23:02:20.004Z,6.00
2019-04-07T23:04:50.890Z,5.90
2019-04-07T23:07:23.446Z,5.90
2019-04-07T23:09:54.371Z,5.90
2019-04-07T23:12:24.970Z,5.90
2019-04-07T23:14:56.230Z,5.80
2019-04-07T23:17:28.024Z,5.80
2019-04-07T23:19:59.657Z,5.70
2019-04-07T23:22:30.611Z,5.70
2019-04-07T23:25:01.706Z,5.70
2019-04-07T23:27:32.687Z,5.70
2019-04-07T23:30:03.719Z,5.70
2019-04-07T23:32:34.437Z,5.70
2019-04-07T23:35:06.166Z,5.70
2019-04-07T23:37:37.172Z,5.70
2019-04-07T23:40:08.818Z,5.70
2019-04-07T23:42:40.131Z,5.70
2019-04-07T23:45:11.118Z,5.60
2019-04-07T23:47:42.740Z,5.60
2019-04-07T23:50:15.622Z,5.50
2019-04-07T23:52:46.474Z,5.50
2019-04-07T23:55:17.603Z,5.50
2019-04-07T23:57:48.689Z,5.40
